sensor_id;sensor_type;location;lat;lon;timestamp;P1;durP1;ratioP1;P2;durP2;ratioP2
15624;SDS011;7912;51.376;6.126;2023-05-07T00:03:52;10.33;;;9.33;;
15624;SDS011;7912;51.376;6.126;2023-05-07T00:06:31;10.13;;;9.23;;
15624;SDS011;7912;51.376;6.126;2023-05-07T00:08:59;11.50;;;10.43;;
15624;SDS011;7912;51.376;6.126;2023-05-07T00:11:27;10.40;;;9.53;;
15624;SDS011;7912;51.376;6.126;2023-05-07T00:13:55;10.93;;;9.93;;
15624;SDS011;7912;51.376;6.126;2023-05-07T00:16:22;9.80;;;9.00;;
15624;SDS011;7912;51.376;6.126;2023-05-07T00:18:50;9.37;;;8.57;;
15624;SDS011;7912;51.376;6.126;2023-05-07T00:21:17;11.10;;;10.10;;
15624;SDS011;7912;51.376;6.126;2023-05-07T00:23:44;9.20;;;8.40;;
15624;SDS011;7912;51.376;6.126;2023-05-07T00:26:12;10.87;;;9.77;;
15624;SDS011;7912;51.376;6.126;2023-05-07T00:28:39;11.40;;;10.30;;
15624;SDS011;7912;51.376;6.126;2023-05-07T00:33:53;10.50;;;9.60;;
15624;SDS011;7912;51.376;6.126;2023-05-07T00:36:21;11.40;;;10.30;;
15624;SDS011;7912;51.376;6.126;2023-05-07T00:38:48;9.63;;;8.73;;
15624;SDS011;7912;51.376;6.126;2023-05-07T00:41:15;10.87;;;9.93;;
15624;SDS011;7912;51.376;6.126;2023-05-07T00:43:43;10.97;;;9.90;;
15624;SDS011;7912;51.376;6.126;2023-05-07T00:46:10;11.93;;;10.73;;
15624;SDS011;7912;51.376;6.126;2023-05-07T00:48:40;11.40;;;10.40;;
15624;SDS011;7912;51.376;6.126;2023-05-07T00:51:07;11.00;;;10.10;;
15624;SDS011;7912;51.376;6.126;2023-05-07T00:56:27;10.83;;;9.77;;
15624;SDS011;7912;51.376;6.126;2023-05-07T00:58:55;11.00;;;9.97;;
15624;SDS011;7912;51.376;6.126;2023-05-07T01:04:09;11.23;;;10.23;;
15624;SDS011;7912;51.376;6.126;2023-05-07T01:09:42;10.67;;;9.77;;
15624;SDS011;7912;51.376;6.126;2023-05-07T01:14:57;10.17;;;9.27;;
15624;SDS011;7912;51.376;6.126;2023-05-07T01:17:25;11.07;;;10.07;;
15624;SDS011;7912;51.376;6.126;2023-05-07T01:19:56;8.27;;;7.57;;
15624;SDS011;7912;51.376;6.126;2023-05-07T01:22:30;9.77;;;8.87;;
15624;SDS011;7912;51.376;6.126;2023-05-07T01:25:00;11.23;;;9.80;;
15624;SDS011;7912;51.376;6.126;2023-05-07T01:27:28;10.33;;;9.43;;
15624;SDS011;7912;51.376;6.126;2023-05-07T01:29:55;9.90;;;9.07;;
15624;SDS011;7912;51.376;6.126;2023-05-07T01:32:32;10.17;;;9.17;;
15624;SDS011;7912;51.376;6.126;2023-05-07T01:35:07;11.07;;;9.83;;
15624;SDS011;7912;51.376;6.126;2023-05-07T01:40:45;10.50;;;9.60;;
15624;SDS011;7912;51.376;6.126;2023-05-07T01:43:12;11.50;;;10.50;;
15624;SDS011;7912;51.376;6.126;2023-05-07T01:45:40;9.27;;;8.47;;
15624;SDS011;7912;51.376;6.126;2023-05-07T01:48:09;11.03;;;10.03;;
15624;SDS011;7912;51.376;6.126;2023-05-07T01:50:38;10.70;;;9.80;;
15624;SDS011;7912;51.376;6.126;2023-05-07T01:53:07;10.87;;;9.83;;
15624;SDS011;7912;51.376;6.126;2023-05-07T01:55:34;10.27;;;9.47;;
15624;SDS011;7912;51.376;6.126;2023-05-07T01:58:03;8.07;;;7.37;;
15624;SDS011;7912;51.376;6.126;2023-05-07T02:03:54;9.67;;;8.67;;
15624;SDS011;7912;51.376;6.126;2023-05-07T02:06:21;10.70;;;9.80;;
15624;SDS011;7912;51.376;6.126;2023-05-07T02:08:50;10.87;;;9.97;;
15624;SDS011;7912;51.376;6.126;2023-05-07T02:11:17;10.07;;;9.17;;
15624;SDS011;7912;51.376;6.126;2023-05-07T02:13:44;9.77;;;9.00;;
15624;SDS011;7912;51.376;6.126;2023-05-07T02:16:11;9.23;;;8.43;;
15624;SDS011;7912;51.376;6.126;2023-05-07T02:18:40;11.10;;;9.40;;
15624;SDS011;7912;51.376;6.126;2023-05-07T02:21:08;10.50;;;9.70;;
15624;SDS011;7912;51.376;6.126;2023-05-07T02:23:37;10.80;;;9.80;;
15624;SDS011;7912;51.376;6.126;2023-05-07T02:26:04;10.60;;;9.60;;
15624;SDS011;7912;51.376;6.126;2023-05-07T02:28:32;10.50;;;9.60;;
15624;SDS011;7912;51.376;6.126;2023-05-07T02:31:04;12.00;;;10.90;;
15624;SDS011;7912;51.376;6.126;2023-05-07T02:33:32;11.63;;;10.43;;
15624;SDS011;7912;51.376;6.126;2023-05-07T02:36:08;11.37;;;10.37;;
15624;SDS011;7912;51.376;6.126;2023-05-07T02:38:36;11.43;;;10.33;;
15624;SDS011;7912;51.376;6.126;2023-05-07T02:41:04;11.17;;;10.07;;
15624;SDS011;7912;51.376;6.126;2023-05-07T02:43:31;10.40;;;9.40;;
15624;SDS011;7912;51.376;6.126;2023-05-07T02:46:02;10.97;;;10.13;;
15624;SDS011;7912;51.376;6.126;2023-05-07T02:48:31;10.83;;;9.93;;
15624;SDS011;7912;51.376;6.126;2023-05-07T02:54:06;10.33;;;9.43;;
15624;SDS011;7912;51.376;6.126;2023-05-07T02:56:33;11.30;;;10.30;;
15624;SDS011;7912;51.376;6.126;2023-05-07T02:59:01;11.30;;;10.30;;
15624;SDS011;7912;51.376;6.126;2023-05-07T03:01:28;11.60;;;10.60;;
15624;SDS011;7912;51.376;6.126;2023-05-07T03:03:55;11.40;;;10.40;;
15624;SDS011;7912;51.376;6.126;2023-05-07T03:06:22;12.17;;;11.07;;
15624;SDS011;7912;51.376;6.126;2023-05-07T03:08:49;11.17;;;10.20;;
15624;SDS011;7912;51.376;6.126;2023-05-07T03:17:47;10.37;;;9.47;;
15624;SDS011;7912;51.376;6.126;2023-05-07T03:20:15;10.53;;;9.47;;
15624;SDS011;7912;51.376;6.126;2023-05-07T03:22:42;11.03;;;10.03;;
15624;SDS011;7912;51.376;6.126;2023-05-07T03:25:10;10.80;;;9.80;;
15624;SDS011;7912;51.376;6.126;2023-05-07T03:27:37;11.60;;;10.40;;
15624;SDS011;7912;51.376;6.126;2023-05-07T03:30:04;10.50;;;9.50;;
15624;SDS011;7912;51.376;6.126;2023-05-07T03:32:34;10.90;;;9.90;;
15624;SDS011;7912;51.376;6.126;2023-05-07T03:35:02;10.53;;;9.60;;
15624;SDS011;7912;51.376;6.126;2023-05-07T03:37:30;10.93;;;10.00;;
15624;SDS011;7912;51.376;6.126;2023-05-07T03:39:57;10.97;;;9.97;;
15624;SDS011;7912;51.376;6.126;2023-05-07T03:42:25;11.23;;;10.13;;
15624;SDS011;7912;51.376;6.126;2023-05-07T03:44:52;10.90;;;9.90;;
15624;SDS011;7912;51.376;6.126;2023-05-07T03:50:11;10.67;;;9.70;;
15624;SDS011;7912;51.376;6.126;2023-05-07T03:52:39;10.87;;;9.83;;
15624;SDS011;7912;51.376;6.126;2023-05-07T03:55:06;10.63;;;9.73;;
15624;SDS011;7912;51.376;6.126;2023-05-07T03:57:34;10.60;;;9.70;;
15624;SDS011;7912;51.376;6.126;2023-05-07T04:00:02;9.30;;;8.50;;
15624;SDS011;7912;51.376;6.126;2023-05-07T04:02:30;10.67;;;9.67;;
15624;SDS011;7912;51.376;6.126;2023-05-07T04:04:59;9.87;;;8.97;;
15624;SDS011;7912;51.376;6.126;2023-05-07T04:07:26;8.30;;;7.63;;
15624;SDS011;7912;51.376;6.126;2023-05-07T04:09:54;9.87;;;9.00;;
15624;SDS011;7912;51.376;6.126;2023-05-07T04:12:21;8.13;;;7.50;;
15624;SDS011;7912;51.376;6.126;2023-05-07T04:14:48;9.43;;;8.60;;
15624;SDS011;7912;51.376;6.126;2023-05-07T04:17:16;10.93;;;9.47;;
15624;SDS011;7912;51.376;6.126;2023-05-07T04:19:43;9.87;;;8.90;;
15624;SDS011;7912;51.376;6.126;2023-05-07T04:22:12;10.47;;;9.53;;
15624;SDS011;7912;51.376;6.126;2023-05-07T04:24:39;9.13;;;8.33;;
15624;SDS011;7912;51.376;6.126;2023-05-07T04:27:06;8.93;;;8.13;;
15624;SDS011;7912;51.376;6.126;2023-05-07T04:29:33;10.20;;;9.30;;
15624;SDS011;7912;51.376;6.126;2023-05-07T04:32:01;9.30;;;8.50;;
15624;SDS011;7912;51.376;6.126;2023-05-07T04:34:28;8.63;;;7.80;;
15624;SDS011;7912;51.376;6.126;2023-05-07T04:36:58;8.53;;;7.83;;
15624;SDS011;7912;51.376;6.126;2023-05-07T04:39:26;8.97;;;8.17;;
15624;SDS011;7912;51.376;6.126;2023-05-07T04:41:53;8.27;;;7.57;;
15624;SDS011;7912;51.376;6.126;2023-05-07T04:44:21;9.67;;;8.03;;
15624;SDS011;7912;51.376;6.126;2023-05-07T04:46:50;8.63;;;7.80;;
15624;SDS011;7912;51.376;6.126;2023-05-07T04:49:18;8.73;;;8.00;;
15624;SDS011;7912;51.376;6.126;2023-05-07T04:51:45;8.10;;;7.40;;
15624;SDS011;7912;51.376;6.126;2023-05-07T04:54:12;8.97;;;8.10;;
15624;SDS011;7912;51.376;6.126;2023-05-07T04:56:39;9.00;;;8.20;;
15624;SDS011;7912;51.376;6.126;2023-05-07T04:59:07;9.00;;;8.17;;
15624;SDS011;7912;51.376;6.126;2023-05-07T05:01:34;8.77;;;7.97;;
15624;SDS011;7912;51.376;6.126;2023-05-07T05:04:01;8.77;;;8.03;;
15624;SDS011;7912;51.376;6.126;2023-05-07T05:06:29;7.40;;;6.80;;
15624;SDS011;7912;51.376;6.126;2023-05-07T05:08:56;7.33;;;6.73;;
15624;SDS011;7912;51.376;6.126;2023-05-07T05:11:24;7.83;;;7.13;;
15624;SDS011;7912;51.376;6.126;2023-05-07T05:13:51;7.87;;;7.17;;
15624;SDS011;7912;51.376;6.126;2023-05-07T05:16:18;8.07;;;7.27;;
15624;SDS011;7912;51.376;6.126;2023-05-07T05:18:46;7.87;;;7.17;;
15624;SDS011;7912;51.376;6.126;2023-05-07T05:21:14;7.87;;;7.20;;
15624;SDS011;7912;51.376;6.126;2023-05-07T05:23:42;8.30;;;7.50;;
15624;SDS011;7912;51.376;6.126;2023-05-07T05:26:10;8.07;;;7.37;;
15624;SDS011;7912;51.376;6.126;2023-05-07T05:28:37;7.73;;;7.00;;
15624;SDS011;7912;51.376;6.126;2023-05-07T05:31:06;8.10;;;7.40;;
15624;SDS011;7912;51.376;6.126;2023-05-07T05:33:33;8.17;;;7.47;;
15624;SDS011;7912;51.376;6.126;2023-05-07T05:36:01;7.37;;;6.57;;
15624;SDS011;7912;51.376;6.126;2023-05-07T05:38:30;7.63;;;7.03;;
15624;SDS011;7912;51.376;6.126;2023-05-07T05:40:58;6.77;;;6.17;;
15624;SDS011;7912;51.376;6.126;2023-05-07T05:43:25;7.70;;;7.10;;
15624;SDS011;7912;51.376;6.126;2023-05-07T05:45:53;7.17;;;6.57;;
15624;SDS011;7912;51.376;6.126;2023-05-07T05:48:51;7.13;;;6.50;;
15624;SDS011;7912;51.376;6.126;2023-05-07T05:51:21;7.00;;;6.40;;
15624;SDS011;7912;51.376;6.126;2023-05-07T05:57:59;6.00;;;5.50;;
15624;SDS011;7912;51.376;6.126;2023-05-07T06:00:27;6.77;;;6.17;;
15624;SDS011;7912;51.376;6.126;2023-05-07T06:02:55;6.93;;;6.27;;
15624;SDS011;7912;51.376;6.126;2023-05-07T06:05:25;6.17;;;5.60;;
15624;SDS011;7912;51.376;6.126;2023-05-07T06:07:53;6.77;;;6.17;;
15624;SDS011;7912;51.376;6.126;2023-05-07T06:10:20;6.97;;;6.37;;
15624;SDS011;7912;51.376;6.126;2023-05-07T06:12:47;5.60;;;5.13;;
15624;SDS011;7912;51.376;6.126;2023-05-07T06:15:15;5.17;;;4.77;;
15624;SDS011;7912;51.376;6.126;2023-05-07T06:17:42;7.17;;;6.47;;
15624;SDS011;7912;51.376;6.126;2023-05-07T06:20:09;6.97;;;6.00;;
15624;SDS011;7912;51.376;6.126;2023-05-07T06:22:37;6.07;;;5.57;;
15624;SDS011;7912;51.376;6.126;2023-05-07T06:25:05;6.30;;;5.70;;
15624;SDS011;7912;51.376;6.126;2023-05-07T06:27:33;5.87;;;5.37;;
15624;SDS011;7912;51.376;6.126;2023-05-07T06:30:00;6.97;;;6.37;;
15624;SDS011;7912;51.376;6.126;2023-05-07T06:32:27;6.33;;;5.80;;
15624;SDS011;7912;51.376;6.126;2023-05-07T06:34:54;7.00;;;6.40;;
15624;SDS011;7912;51.376;6.126;2023-05-07T06:37:25;6.90;;;6.30;;
15624;SDS011;7912;51.376;6.126;2023-05-07T06:39:52;6.90;;;6.33;;
15624;SDS011;7912;51.376;6.126;2023-05-07T06:46:01;5.83;;;5.33;;
15624;SDS011;7912;51.376;6.126;2023-05-07T06:48:29;6.27;;;5.67;;
15624;SDS011;7912;51.376;6.126;2023-05-07T06:50:56;6.50;;;5.90;;
15624;SDS011;7912;51.376;6.126;2023-05-07T06:53:24;6.07;;;5.50;;
15624;SDS011;7912;51.376;6.126;2023-05-07T06:55:52;6.30;;;5.77;;
15624;SDS011;7912;51.376;6.126;2023-05-07T06:58:19;6.50;;;6.00;;
15624;SDS011;7912;51.376;6.126;2023-05-07T07:00:46;7.07;;;6.37;;
15624;SDS011;7912;51.376;6.126;2023-05-07T07:07:23;6.03;;;5.53;;
15624;SDS011;7912;51.376;6.126;2023-05-07T07:09:51;6.30;;;5.50;;
15624;SDS011;7912;51.376;6.126;2023-05-07T07:16:28;5.33;;;4.83;;
15624;SDS011;7912;51.376;6.126;2023-05-07T07:18:55;6.00;;;5.40;;
15624;SDS011;7912;51.376;6.126;2023-05-07T07:21:22;5.93;;;5.43;;
15624;SDS011;7912;51.376;6.126;2023-05-07T07:23:49;5.80;;;5.30;;
15624;SDS011;7912;51.376;6.126;2023-05-07T07:26:17;5.80;;;5.33;;
15624;SDS011;7912;51.376;6.126;2023-05-07T07:28:45;4.80;;;4.37;;
15624;SDS011;7912;51.376;6.126;2023-05-07T07:31:12;5.77;;;5.27;;
15624;SDS011;7912;51.376;6.126;2023-05-07T07:33:40;6.17;;;4.97;;
15624;SDS011;7912;51.376;6.126;2023-05-07T07:36:07;5.63;;;4.60;;
15624;SDS011;7912;51.376;6.126;2023-05-07T07:38:35;5.90;;;5.30;;
15624;SDS011;7912;51.376;6.126;2023-05-07T07:41:03;4.63;;;4.23;;
15624;SDS011;7912;51.376;6.126;2023-05-07T07:43:30;5.50;;;4.87;;
15624;SDS011;7912;51.376;6.126;2023-05-07T07:45:58;5.00;;;4.40;;
15624;SDS011;7912;51.376;6.126;2023-05-07T07:48:25;4.67;;;4.27;;
15624;SDS011;7912;51.376;6.126;2023-05-07T07:50:52;4.67;;;4.27;;
15624;SDS011;7912;51.376;6.126;2023-05-07T07:53:19;4.70;;;4.30;;
15624;SDS011;7912;51.376;6.126;2023-05-07T07:55:46;4.67;;;4.00;;
15624;SDS011;7912;51.376;6.126;2023-05-07T07:58:14;4.40;;;4.10;;
15624;SDS011;7912;51.376;6.126;2023-05-07T08:00:41;4.30;;;4.00;;
15624;SDS011;7912;51.376;6.126;2023-05-07T08:03:11;4.13;;;3.73;;
15624;SDS011;7912;51.376;6.126;2023-05-07T08:05:39;4.20;;;3.83;;
15624;SDS011;7912;51.376;6.126;2023-05-07T08:08:06;4.07;;;3.77;;
15624;SDS011;7912;51.376;6.126;2023-05-07T08:10:34;4.27;;;3.97;;
15624;SDS011;7912;51.376;6.126;2023-05-07T08:13:04;4.07;;;3.67;;
15624;SDS011;7912;51.376;6.126;2023-05-07T08:15:32;4.00;;;3.70;;
15624;SDS011;7912;51.376;6.126;2023-05-07T08:18:00;4.70;;;3.90;;
15624;SDS011;7912;51.376;6.126;2023-05-07T08:20:28;4.87;;;4.37;;
15624;SDS011;7912;51.376;6.126;2023-05-07T08:22:56;4.67;;;4.07;;
15624;SDS011;7912;51.376;6.126;2023-05-07T08:25:23;4.50;;;4.10;;
15624;SDS011;7912;51.376;6.126;2023-05-07T08:36:10;3.73;;;3.43;;
15624;SDS011;7912;51.376;6.126;2023-05-07T08:38:37;4.30;;;3.67;;
15624;SDS011;7912;51.376;6.126;2023-05-07T08:41:09;4.57;;;3.47;;
15624;SDS011;7912;51.376;6.126;2023-05-07T08:43:37;4.20;;;3.90;;
15624;SDS011;7912;51.376;6.126;2023-05-07T08:46:09;4.53;;;3.40;;
15624;SDS011;7912;51.376;6.126;2023-05-07T08:48:37;3.43;;;3.13;;
15624;SDS011;7912;51.376;6.126;2023-05-07T08:51:06;3.90;;;3.50;;
15624;SDS011;7912;51.376;6.126;2023-05-07T08:53:35;3.50;;;3.10;;
15624;SDS011;7912;51.376;6.126;2023-05-07T08:56:03;3.40;;;3.10;;
15624;SDS011;7912;51.376;6.126;2023-05-07T08:58:32;3.67;;;3.00;;
15624;SDS011;7912;51.376;6.126;2023-05-07T09:01:00;3.90;;;3.37;;
15624;SDS011;7912;51.376;6.126;2023-05-07T09:03:36;3.50;;;3.20;;
15624;SDS011;7912;51.376;6.126;2023-05-07T09:06:05;3.70;;;3.30;;
15624;SDS011;7912;51.376;6.126;2023-05-07T09:08:33;3.93;;;3.33;;
15624;SDS011;7912;51.376;6.126;2023-05-07T09:11:02;3.60;;;3.30;;
15624;SDS011;7912;51.376;6.126;2023-05-07T09:13:30;4.63;;;3.27;;
15624;SDS011;7912;51.376;6.126;2023-05-07T09:15:57;4.03;;;3.73;;
15624;SDS011;7912;51.376;6.126;2023-05-07T09:18:24;3.53;;;3.23;;
15624;SDS011;7912;51.376;6.126;2023-05-07T09:20:52;3.70;;;3.40;;
15624;SDS011;7912;51.376;6.126;2023-05-07T09:23:19;3.80;;;3.40;;
15624;SDS011;7912;51.376;6.126;2023-05-07T09:25:47;4.53;;;3.43;;
15624;SDS011;7912;51.376;6.126;2023-05-07T09:28:14;3.30;;;3.10;;
15624;SDS011;7912;51.376;6.126;2023-05-07T09:30:42;4.20;;;3.23;;
15624;SDS011;7912;51.376;6.126;2023-05-07T09:33:09;3.20;;;2.90;;
15624;SDS011;7912;51.376;6.126;2023-05-07T09:35:39;5.23;;;3.30;;
15624;SDS011;7912;51.376;6.126;2023-05-07T09:38:07;2.80;;;2.60;;
15624;SDS011;7912;51.376;6.126;2023-05-07T09:40:34;3.60;;;3.17;;
15624;SDS011;7912;51.376;6.126;2023-05-07T09:43:11;3.87;;;3.50;;
15624;SDS011;7912;51.376;6.126;2023-05-07T09:48:52;3.77;;;3.10;;
15624;SDS011;7912;51.376;6.126;2023-05-07T09:54:18;4.77;;;2.93;;
15624;SDS011;7912;51.376;6.126;2023-05-07T09:56:46;3.10;;;2.67;;
15624;SDS011;7912;51.376;6.126;2023-05-07T10:02:09;3.00;;;2.70;;
15624;SDS011;7912;51.376;6.126;2023-05-07T10:04:37;4.10;;;2.93;;
15624;SDS011;7912;51.376;6.126;2023-05-07T10:07:08;3.87;;;1.63;;
15624;SDS011;7912;51.376;6.126;2023-05-07T10:13:19;2.20;;;2.00;;
15624;SDS011;7912;51.376;6.126;2023-05-07T10:19:11;1.77;;;1.53;;
15624;SDS011;7912;51.376;6.126;2023-05-07T10:21:39;2.33;;;2.00;;
15624;SDS011;7912;51.376;6.126;2023-05-07T10:27:44;2.80;;;2.40;;
15624;SDS011;7912;51.376;6.126;2023-05-07T10:33:08;2.50;;;2.30;;
15624;SDS011;7912;51.376;6.126;2023-05-07T10:35:44;2.63;;;2.10;;
15624;SDS011;7912;51.376;6.126;2023-05-07T10:38:14;2.40;;;2.20;;
15624;SDS011;7912;51.376;6.126;2023-05-07T10:40:41;2.13;;;1.90;;
15624;SDS011;7912;51.376;6.126;2023-05-07T10:43:13;2.53;;;2.10;;
15624;SDS011;7912;51.376;6.126;2023-05-07T10:45:43;2.53;;;1.87;;
15624;SDS011;7912;51.376;6.126;2023-05-07T10:51:33;1.70;;;1.60;;
15624;SDS011;7912;51.376;6.126;2023-05-07T10:56:38;2.00;;;1.50;;
15624;SDS011;7912;51.376;6.126;2023-05-07T11:01:54;2.27;;;1.30;;
15624;SDS011;7912;51.376;6.126;2023-05-07T11:04:24;1.60;;;1.50;;
15624;SDS011;7912;51.376;6.126;2023-05-07T11:15:08;3.63;;;1.50;;
15624;SDS011;7912;51.376;6.126;2023-05-07T11:17:57;1.67;;;1.57;;
15624;SDS011;7912;51.376;6.126;2023-05-07T11:24:09;3.30;;;2.00;;
15624;SDS011;7912;51.376;6.126;2023-05-07T11:26:44;2.00;;;1.80;;
15624;SDS011;7912;51.376;6.126;2023-05-07T11:29:19;3.40;;;2.00;;
15624;SDS011;7912;51.376;6.126;2023-05-07T11:31:52;2.00;;;1.87;;
15624;SDS011;7912;51.376;6.126;2023-05-07T11:34:25;2.00;;;1.80;;
15624;SDS011;7912;51.376;6.126;2023-05-07T11:41:03;1.97;;;1.80;;
15624;SDS011;7912;51.376;6.126;2023-05-07T11:43:33;2.43;;;2.00;;
15624;SDS011;7912;51.376;6.126;2023-05-07T11:46:09;1.97;;;1.60;;
15624;SDS011;7912;51.376;6.126;2023-05-07T11:48:38;2.27;;;1.90;;
15624;SDS011;7912;51.376;6.126;2023-05-07T11:55:17;2.93;;;1.93;;
15624;SDS011;7912;51.376;6.126;2023-05-07T11:57:45;2.00;;;1.90;;
15624;SDS011;7912;51.376;6.126;2023-05-07T12:00:15;2.23;;;2.03;;
15624;SDS011;7912;51.376;6.126;2023-05-07T12:02:44;2.90;;;1.90;;
15624;SDS011;7912;51.376;6.126;2023-05-07T12:05:17;2.17;;;1.43;;
15624;SDS011;7912;51.376;6.126;2023-05-07T12:07:44;2.53;;;1.80;;
15624;SDS011;7912;51.376;6.126;2023-05-07T12:10:11;3.70;;;2.80;;
15624;SDS011;7912;51.376;6.126;2023-05-07T12:12:46;2.97;;;2.00;;
15624;SDS011;7912;51.376;6.126;2023-05-07T12:15:17;2.27;;;2.03;;
15624;SDS011;7912;51.376;6.126;2023-05-07T12:17:48;1.80;;;1.70;;
15624;SDS011;7912;51.376;6.126;2023-05-07T12:24:17;1.67;;;1.47;;
15624;SDS011;7912;51.376;6.126;2023-05-07T12:26:47;1.50;;;1.40;;
15624;SDS011;7912;51.376;6.126;2023-05-07T12:29:15;1.67;;;1.57;;
15624;SDS011;7912;51.376;6.126;2023-05-07T12:31:43;1.53;;;1.30;;
15624;SDS011;7912;51.376;6.126;2023-05-07T12:34:10;2.20;;;1.30;;
15624;SDS011;7912;51.376;6.126;2023-05-07T12:36:39;1.60;;;1.50;;
15624;SDS011;7912;51.376;6.126;2023-05-07T12:39:08;2.07;;;1.60;;
15624;SDS011;7912;51.376;6.126;2023-05-07T12:41:51;1.80;;;1.40;;
15624;SDS011;7912;51.376;6.126;2023-05-07T12:44:25;1.40;;;1.30;;
15624;SDS011;7912;51.376;6.126;2023-05-07T12:50:49;1.40;;;1.30;;
15624;SDS011;7912;51.376;6.126;2023-05-07T12:53:19;2.10;;;1.90;;
15624;SDS011;7912;51.376;6.126;2023-05-07T12:55:54;1.87;;;1.30;;
15624;SDS011;7912;51.376;6.126;2023-05-07T12:58:25;1.90;;;1.70;;
15624;SDS011;7912;51.376;6.126;2023-05-07T13:03:48;3.60;;;1.87;;
15624;SDS011;7912;51.376;6.126;2023-05-07T13:06:16;3.00;;;2.00;;
15624;SDS011;7912;51.376;6.126;2023-05-07T13:08:44;2.17;;;1.97;;
15624;SDS011;7912;51.376;6.126;2023-05-07T13:11:12;2.30;;;1.60;;
15624;SDS011;7912;51.376;6.126;2023-05-07T13:13:40;2.50;;;1.70;;
15624;SDS011;7912;51.376;6.126;2023-05-07T13:16:09;2.53;;;1.57;;
15624;SDS011;7912;51.376;6.126;2023-05-07T13:18:38;2.70;;;1.63;;
15624;SDS011;7912;51.376;6.126;2023-05-07T13:21:07;1.43;;;1.33;;
15624;SDS011;7912;51.376;6.126;2023-05-07T13:23:37;2.20;;;1.30;;
15624;SDS011;7912;51.376;6.126;2023-05-07T13:26:05;2.07;;;1.33;;
15624;SDS011;7912;51.376;6.126;2023-05-07T13:28:54;1.97;;;1.47;;
15624;SDS011;7912;51.376;6.126;2023-05-07T13:31:22;1.57;;;1.40;;
15624;SDS011;7912;51.376;6.126;2023-05-07T13:33:50;3.03;;;1.80;;
15624;SDS011;7912;51.376;6.126;2023-05-07T13:39:24;2.03;;;1.57;;
15624;SDS011;7912;51.376;6.126;2023-05-07T13:41:51;2.43;;;1.50;;
15624;SDS011;7912;51.376;6.126;2023-05-07T13:44:18;1.90;;;1.40;;
15624;SDS011;7912;51.376;6.126;2023-05-07T13:46:47;1.67;;;1.50;;
15624;SDS011;7912;51.376;6.126;2023-05-07T13:49:14;2.30;;;1.37;;
15624;SDS011;7912;51.376;6.126;2023-05-07T13:51:42;1.87;;;1.33;;
15624;SDS011;7912;51.376;6.126;2023-05-07T13:54:09;2.20;;;1.60;;
15624;SDS011;7912;51.376;6.126;2023-05-07T13:56:36;1.97;;;1.80;;
15624;SDS011;7912;51.376;6.126;2023-05-07T13:59:04;4.07;;;2.03;;
15624;SDS011;7912;51.376;6.126;2023-05-07T14:01:31;3.33;;;2.50;;
15624;SDS011;7912;51.376;6.126;2023-05-07T14:03:59;3.27;;;2.43;;
15624;SDS011;7912;51.376;6.126;2023-05-07T14:10:36;2.80;;;2.00;;
15624;SDS011;7912;51.376;6.126;2023-05-07T14:13:04;1.90;;;1.80;;
15624;SDS011;7912;51.376;6.126;2023-05-07T14:15:31;2.37;;;1.67;;
15624;SDS011;7912;51.376;6.126;2023-05-07T14:17:59;3.10;;;1.70;;
15624;SDS011;7912;51.376;6.126;2023-05-07T14:20:27;3.27;;;1.90;;
15624;SDS011;7912;51.376;6.126;2023-05-07T14:22:54;2.37;;;1.83;;
15624;SDS011;7912;51.376;6.126;2023-05-07T14:29:06;2.30;;;1.90;;
15624;SDS011;7912;51.376;6.126;2023-05-07T14:31:34;3.80;;;1.90;;
15624;SDS011;7912;51.376;6.126;2023-05-07T14:34:01;3.40;;;2.10;;
15624;SDS011;7912;51.376;6.126;2023-05-07T14:36:28;2.87;;;2.17;;
15624;SDS011;7912;51.376;6.126;2023-05-07T14:38:58;2.77;;;2.37;;
15624;SDS011;7912;51.376;6.126;2023-05-07T14:41:25;4.20;;;2.60;;
15624;SDS011;7912;51.376;6.126;2023-05-07T14:43:53;2.87;;;2.43;;
15624;SDS011;7912;51.376;6.126;2023-05-07T14:46:20;3.43;;;2.60;;
15624;SDS011;7912;51.376;6.126;2023-05-07T14:48:48;2.93;;;2.43;;
15624;SDS011;7912;51.376;6.126;2023-05-07T14:51:15;2.43;;;2.10;;
15624;SDS011;7912;51.376;6.126;2023-05-07T14:53:44;2.60;;;1.93;;
15624;SDS011;7912;51.376;6.126;2023-05-07T14:56:11;2.50;;;1.90;;
15624;SDS011;7912;51.376;6.126;2023-05-07T15:02:48;2.07;;;1.57;;
15624;SDS011;7912;51.376;6.126;2023-05-07T15:05:16;2.60;;;1.60;;
15624;SDS011;7912;51.376;6.126;2023-05-07T15:07:45;1.40;;;1.30;;
15624;SDS011;7912;51.376;6.126;2023-05-07T15:10:12;0.90;;;0.90;;
15624;SDS011;7912;51.376;6.126;2023-05-07T15:12:40;2.23;;;1.33;;
15624;SDS011;7912;51.376;6.126;2023-05-07T15:15:07;2.00;;;1.53;;
15624;SDS011;7912;51.376;6.126;2023-05-07T15:17:36;1.93;;;1.40;;
15624;SDS011;7912;51.376;6.126;2023-05-07T15:24:13;1.67;;;1.50;;
15624;SDS011;7912;51.376;6.126;2023-05-07T15:26:41;2.10;;;1.60;;
15624;SDS011;7912;51.376;6.126;2023-05-07T15:29:08;2.30;;;1.30;;
15624;SDS011;7912;51.376;6.126;2023-05-07T15:31:36;1.83;;;1.13;;
15624;SDS011;7912;51.376;6.126;2023-05-07T15:34:05;1.10;;;1.00;;
15624;SDS011;7912;51.376;6.126;2023-05-07T15:36:32;0.90;;;0.90;;
15624;SDS011;7912;51.376;6.126;2023-05-07T15:39:00;1.10;;;0.90;;
15624;SDS011;7912;51.376;6.126;2023-05-07T15:45:40;1.63;;;1.00;;
15624;SDS011;7912;51.376;6.126;2023-05-07T15:48:09;1.50;;;1.30;;
15624;SDS011;7912;51.376;6.126;2023-05-07T15:50:37;1.63;;;1.10;;
15624;SDS011;7912;51.376;6.126;2023-05-07T15:53:04;1.97;;;1.20;;
15624;SDS011;7912;51.376;6.126;2023-05-07T15:55:31;1.90;;;1.30;;
15624;SDS011;7912;51.376;6.126;2023-05-07T16:05:52;1.77;;;1.50;;
15624;SDS011;7912;51.376;6.126;2023-05-07T16:08:19;3.93;;;2.00;;
15624;SDS011;7912;51.376;6.126;2023-05-07T16:10:47;1.60;;;1.50;;
15624;SDS011;7912;51.376;6.126;2023-05-07T16:13:14;2.90;;;1.60;;
15624;SDS011;7912;51.376;6.126;2023-05-07T16:15:45;1.87;;;1.50;;
15624;SDS011;7912;51.376;6.126;2023-05-07T16:18:15;1.60;;;1.50;;
15624;SDS011;7912;51.376;6.126;2023-05-07T16:24:53;1.90;;;1.60;;
15624;SDS011;7912;51.376;6.126;2023-05-07T16:27:21;2.13;;;1.70;;
15624;SDS011;7912;51.376;6.126;2023-05-07T16:29:48;2.50;;;1.77;;
15624;SDS011;7912;51.376;6.126;2023-05-07T16:32:15;1.63;;;1.53;;
15624;SDS011;7912;51.376;6.126;2023-05-07T16:34:42;1.93;;;1.83;;
15624;SDS011;7912;51.376;6.126;2023-05-07T16:37:10;1.97;;;1.70;;
15624;SDS011;7912;51.376;6.126;2023-05-07T16:43:47;3.13;;;2.30;;
15624;SDS011;7912;51.376;6.126;2023-05-07T16:46:14;2.40;;;2.20;;
15624;SDS011;7912;51.376;6.126;2023-05-07T16:48:42;2.17;;;1.97;;
15624;SDS011;7912;51.376;6.126;2023-05-07T16:51:09;2.00;;;1.90;;
15624;SDS011;7912;51.376;6.126;2023-05-07T16:56:45;2.20;;;2.00;;
15624;SDS011;7912;51.376;6.126;2023-05-07T16:59:13;2.10;;;1.90;;
15624;SDS011;7912;51.376;6.126;2023-05-07T17:01:41;2.20;;;2.00;;
15624;SDS011;7912;51.376;6.126;2023-05-07T17:04:08;4.43;;;2.20;;
15624;SDS011;7912;51.376;6.126;2023-05-07T17:06:35;3.00;;;2.13;;
15624;SDS011;7912;51.376;6.126;2023-05-07T17:09:03;1.93;;;1.73;;
15624;SDS011;7912;51.376;6.126;2023-05-07T17:11:30;2.10;;;1.90;;
15624;SDS011;7912;51.376;6.126;2023-05-07T17:13:59;2.63;;;2.40;;
15624;SDS011;7912;51.376;6.126;2023-05-07T17:16:31;2.50;;;2.30;;
15624;SDS011;7912;51.376;6.126;2023-05-07T17:18:58;3.57;;;2.30;;
15624;SDS011;7912;51.376;6.126;2023-05-07T17:21:25;2.77;;;2.50;;
15624;SDS011;7912;51.376;6.126;2023-05-07T17:23:53;2.53;;;2.33;;
15624;SDS011;7912;51.376;6.126;2023-05-07T17:26:20;2.53;;;2.30;;
15624;SDS011;7912;51.376;6.126;2023-05-07T17:28:47;3.87;;;2.20;;
15624;SDS011;7912;51.376;6.126;2023-05-07T17:31:15;2.20;;;2.00;;
15624;SDS011;7912;51.376;6.126;2023-05-07T17:33:42;2.43;;;2.23;;
15624;SDS011;7912;51.376;6.126;2023-05-07T17:36:09;4.47;;;2.30;;
15624;SDS011;7912;51.376;6.126;2023-05-07T17:38:37;2.27;;;2.07;;
15624;SDS011;7912;51.376;6.126;2023-05-07T17:41:04;1.67;;;1.57;;
15624;SDS011;7912;51.376;6.126;2023-05-07T17:43:31;2.03;;;1.50;;
15624;SDS011;7912;51.376;6.126;2023-05-07T17:45:58;1.67;;;1.20;;
15624;SDS011;7912;51.376;6.126;2023-05-07T17:48:26;1.47;;;1.30;;
15624;SDS011;7912;51.376;6.126;2023-05-07T17:50:59;1.93;;;1.30;;